Drummond, MI

8:22 PM EST on December 28, 2014 (GMT -0500)
Drummond Island | Change Station
CLOSE
Current Station
Airport
Location: Drummond Island,
Elevation: 669 ft
Nearby Weather Stations

Elev 669 ft 46.01 °N, 83.74 °W | Updated 7 minutes ago

Overcast
Overcast
22 °F
Feels Like 11 °F
N
10
Wind Variable Wind from WNW
Gusts 17 mph

Today
High -- | Low -- °F
--% Chance of Precip.
Yesterday
High -- | Low -- °F
Precip. -- in
8:16 AM 4:56 PM
First Quarter, 53% visible
Pressure 30.12 in
Visibility 10.0 miles
Clouds Scattered Clouds 2400 ft
Overcast 4900 ft
Windchill 11 °F
Dew Point 15 °F
Humidity 74%
Rainfall 0.00 in
Snow Depth Not available.
UV 0 out of 12
Pollen .10 out of 12
Air Quality Not available.
Flu Activity Not available.
METAR KDRM 290115Z AUTO 30009G15KT 270V330 10SM SCT024 OVC049 M05/M09 A3012 RMK AO2 T10551094

More Conditions Fewer Conditions

Pressure 30.12 in
Visibility 10.0 miles
Clouds Scattered Clouds 2400 ft
Overcast 4900 ft
Windchill 11 °F
Dew Point 15 °F
Humidity 74%
Rainfall 0.00 in
Snow Depth Not available.
UV 0 out of 12
Pollen .10 out of 12
Air Quality Not available.
Flu Activity Not available.
METAR KDRM 290115Z AUTO 30009G15KT 270V330 10SM SCT024 OVC049 M05/M09 A3012 RMK AO2 T10551094

More Conditions Fewer Conditions

Nowcast | as of 8:00 PM EST on December 28, 2014

At 9 PM...frequent snow showers. Temperature 20. Northwest winds 12 mph. At 11 PM...mostly cloudy. Scattered snow showers. Temperature 17. Northwest winds 9 mph. At 1 am...mostly cloudy. Scattered snow showers. Temperature 15. North winds 7 mph. At 3 am...mostly cloudy. Scattered snow showers. Temperature 13. North winds 6 mph.

×

10-Day Weather Forecast

Almanac

Astronomy

Dec. 28, 2014 Rise Set
Actual Time
Civil Twilight
Nautical Twilight
Astronomical Twilight
Moon
Length of Visible Light
Length of Day
Tomorrow will be .
, % of the Moon is Illuminated

Today's Extremes

State Highs State Lows

Community

WunderPhotos

Upload Photos

1,781,484 photos uploaded!

WunderBlogs® & News

Nearby

Air Quality

  Air Quality AQ Index Pollutant
Not available.

Snow Depth

Station Depth Elevation

Earthquake Activity

City Distance Mag. Time & Date
Minimum magnitude displayed is 2.5.

Coastal Water Temperatures

Place Temperature

Nearby Weather Stations